sensor_id;sensor_type;location;lat;lon;timestamp;temperature;humidity
70089;HTU21D;57460;47.134;19.888;2023-05-02T00:00:41;12.49;55.90
70089;HTU21D;57460;47.134;19.888;2023-05-02T00:03:07;12.45;56.26
70089;HTU21D;57460;47.134;19.888;2023-05-02T00:05:33;12.41;55.32
70089;HTU21D;57460;47.134;19.888;2023-05-02T00:07:59;12.38;54.01
70089;HTU21D;57460;47.134;19.888;2023-05-02T00:10:25;12.36;55.00
70089;HTU21D;57460;47.134;19.888;2023-05-02T00:12:51;12.30;55.36
70089;HTU21D;57460;47.134;19.888;2023-05-02T00:15:16;12.23;55.17
70089;HTU21D;57460;47.134;19.888;2023-05-02T00:17:42;12.25;55.82
70089;HTU21D;57460;47.134;19.888;2023-05-02T00:20:12;12.23;54.46
70089;HTU21D;57460;47.134;19.888;2023-05-02T00:22:38;12.19;55.85
70089;HTU21D;57460;47.134;19.888;2023-05-02T00:25:05;12.13;55.56
70089;HTU21D;57460;47.134;19.888;2023-05-02T00:27:31;12.08;55.98
70089;HTU21D;57460;47.134;19.888;2023-05-02T00:29:58;12.02;54.62
70089;HTU21D;57460;47.134;19.888;2023-05-02T00:32:25;12.02;55.78
70089;HTU21D;57460;47.134;19.888;2023-05-02T00:34:51;12.01;54.58
70089;HTU21D;57460;47.134;19.888;2023-05-02T00:37:17;11.98;53.76
70089;HTU21D;57460;47.134;19.888;2023-05-02T00:39:43;11.87;54.54
70089;HTU21D;57460;47.134;19.888;2023-05-02T00:42:09;11.83;56.19
70089;HTU21D;57460;47.134;19.888;2023-05-02T00:44:35;11.73;54.28
70089;HTU21D;57460;47.134;19.888;2023-05-02T00:47:04;11.63;56.57
70089;HTU21D;57460;47.134;19.888;2023-05-02T00:49:30;11.61;56.55
70089;HTU21D;57460;47.134;19.888;2023-05-02T00:51:57;11.55;55.16
70089;HTU21D;57460;47.134;19.888;2023-05-02T00:54:23;11.49;58.49
70089;HTU21D;57460;47.134;19.888;2023-05-02T00:56:49;11.48;57.16
70089;HTU21D;57460;47.134;19.888;2023-05-02T00:59:15;11.40;56.57
70089;HTU21D;57460;47.134;19.888;2023-05-02T01:07:02;11.28;57.52
70089;HTU21D;57460;47.134;19.888;2023-05-02T01:12:03;11.31;57.45
70089;HTU21D;57460;47.134;19.888;2023-05-02T01:14:34;11.25;56.96
70089;HTU21D;57460;47.134;19.888;2023-05-02T01:17:07;11.22;58.03
70089;HTU21D;57460;47.134;19.888;2023-05-02T01:19:42;11.22;59.09
70089;HTU21D;57460;47.134;19.888;2023-05-02T01:28:28;10.98;56.69
70089;HTU21D;57460;47.134;19.888;2023-05-02T01:30:57;10.97;57.75
70089;HTU21D;57460;47.134;19.888;2023-05-02T01:33:26;10.90;62.17
70089;HTU21D;57460;47.134;19.888;2023-05-02T01:35:55;10.85;63.73
70089;HTU21D;57460;47.134;19.888;2023-05-02T01:38:23;10.79;59.73
70089;HTU21D;57460;47.134;19.888;2023-05-02T01:40:53;10.90;56.68
70089;HTU21D;57460;47.134;19.888;2023-05-02T01:43:20;10.83;60.09
70089;HTU21D;57460;47.134;19.888;2023-05-02T01:45:49;10.74;61.71
70089;HTU21D;57460;47.134;19.888;2023-05-02T01:48:18;10.77;58.45
70089;HTU21D;57460;47.134;19.888;2023-05-02T01:50:46;10.77;57.44
70089;HTU21D;57460;47.134;19.888;2023-05-02T01:53:13;10.75;57.44
70089;HTU21D;57460;47.134;19.888;2023-05-02T01:55:45;10.62;64.11
70089;HTU21D;57460;47.134;19.888;2023-05-02T01:58:13;10.56;61.66
70089;HTU21D;57460;47.134;19.888;2023-05-02T02:00:40;10.53;59.25
70089;HTU21D;57460;47.134;19.888;2023-05-02T02:03:10;10.50;59.57
70089;HTU21D;57460;47.134;19.888;2023-05-02T02:05:39;10.43;60.54
70089;HTU21D;57460;47.134;19.888;2023-05-02T02:08:07;10.44;61.55
70089;HTU21D;57460;47.134;19.888;2023-05-02T02:10:39;10.45;60.95
70089;HTU21D;57460;47.134;19.888;2023-05-02T02:13:16;10.35;61.28
70089;HTU21D;57460;47.134;19.888;2023-05-02T02:15:46;10.36;60.47
70089;HTU21D;57460;47.134;19.888;2023-05-02T02:18:20;10.35;63.45
70089;HTU21D;57460;47.134;19.888;2023-05-02T02:20:49;10.25;61.64
70089;HTU21D;57460;47.134;19.888;2023-05-02T02:23:20;10.19;59.74
70089;HTU21D;57460;47.134;19.888;2023-05-02T02:25:49;10.13;62.18
70089;HTU21D;57460;47.134;19.888;2023-05-02T02:28:15;10.19;63.09
70089;HTU21D;57460;47.134;19.888;2023-05-02T02:30:41;10.18;62.21
70089;HTU21D;57460;47.134;19.888;2023-05-02T02:33:07;10.20;61.90
70089;HTU21D;57460;47.134;19.888;2023-05-02T02:35:41;10.21;62.03
70089;HTU21D;57460;47.134;19.888;2023-05-02T02:38:19;10.18;61.53
70089;HTU21D;57460;47.134;19.888;2023-05-02T02:40:58;10.16;62.49
70089;HTU21D;57460;47.134;19.888;2023-05-02T02:46:27;9.96;63.36
70089;HTU21D;57460;47.134;19.888;2023-05-02T02:52:39;9.81;62.49
70089;HTU21D;57460;47.134;19.888;2023-05-02T02:55:11;9.82;62.91
70089;HTU21D;57460;47.134;19.888;2023-05-02T02:57:54;9.91;61.73
70089;HTU21D;57460;47.134;19.888;2023-05-02T03:00:26;10.04;59.47
70089;HTU21D;57460;47.134;19.888;2023-05-02T03:02:53;9.99;60.32
70089;HTU21D;57460;47.134;19.888;2023-05-02T03:05:22;9.99;62.33
70089;HTU21D;57460;47.134;19.888;2023-05-02T03:07:48;10.04;61.39
70089;HTU21D;57460;47.134;19.888;2023-05-02T03:10:15;10.07;63.84
70089;HTU21D;57460;47.134;19.888;2023-05-02T03:12:41;10.06;64.81
70089;HTU21D;57460;47.134;19.888;2023-05-02T03:18:12;10.00;61.89
70089;HTU21D;57460;47.134;19.888;2023-05-02T03:20:38;9.84;62.65
70089;HTU21D;57460;47.134;19.888;2023-05-02T03:23:04;9.83;62.02
70089;HTU21D;57460;47.134;19.888;2023-05-02T03:25:30;9.82;61.76
70089;HTU21D;57460;47.134;19.888;2023-05-02T03:27:59;9.86;62.89
70089;HTU21D;57460;47.134;19.888;2023-05-02T03:30:25;9.92;60.71
70089;HTU21D;57460;47.134;19.888;2023-05-02T03:32:51;9.88;62.77
70089;HTU21D;57460;47.134;19.888;2023-05-02T03:35:17;9.90;63.77
70089;HTU21D;57460;47.134;19.888;2023-05-02T03:37:46;9.90;62.40
70089;HTU21D;57460;47.134;19.888;2023-05-02T03:40:18;9.91;63.53
70089;HTU21D;57460;47.134;19.888;2023-05-02T03:42:46;9.93;63.07
70089;HTU21D;57460;47.134;19.888;2023-05-02T03:45:12;9.92;63.47
70089;HTU21D;57460;47.134;19.888;2023-05-02T03:47:37;9.97;63.39
70089;HTU21D;57460;47.134;19.888;2023-05-02T03:50:03;9.91;63.88
70089;HTU21D;57460;47.134;19.888;2023-05-02T03:52:29;9.82;63.24
70089;HTU21D;57460;47.134;19.888;2023-05-02T03:54:56;9.68;64.47
70089;HTU21D;57460;47.134;19.888;2023-05-02T03:57:22;9.61;65.05
70089;HTU21D;57460;47.134;19.888;2023-05-02T03:59:47;9.62;65.11
70089;HTU21D;57460;47.134;19.888;2023-05-02T04:02:14;9.64;65.64
70089;HTU21D;57460;47.134;19.888;2023-05-02T04:04:40;9.56;66.95
70089;HTU21D;57460;47.134;19.888;2023-05-02T04:07:06;9.65;65.95
70089;HTU21D;57460;47.134;19.888;2023-05-02T04:09:33;9.67;65.53
70089;HTU21D;57460;47.134;19.888;2023-05-02T04:11:59;9.78;66.12
70089;HTU21D;57460;47.134;19.888;2023-05-02T04:14:24;9.91;65.61
70089;HTU21D;57460;47.134;19.888;2023-05-02T04:16:51;10.04;67.80
70089;HTU21D;57460;47.134;19.888;2023-05-02T04:19:18;10.14;68.23
70089;HTU21D;57460;47.134;19.888;2023-05-02T04:21:44;10.26;68.04
70089;HTU21D;57460;47.134;19.888;2023-05-02T04:24:10;10.39;66.62
70089;HTU21D;57460;47.134;19.888;2023-05-02T04:26:36;10.50;67.14
70089;HTU21D;57460;47.134;19.888;2023-05-02T04:29:02;10.56;67.81
70089;HTU21D;57460;47.134;19.888;2023-05-02T04:31:30;10.64;67.65
70089;HTU21D;57460;47.134;19.888;2023-05-02T04:33:56;10.72;67.68
70089;HTU21D;57460;47.134;19.888;2023-05-02T04:36:23;10.81;67.01
70089;HTU21D;57460;47.134;19.888;2023-05-02T04:38:50;10.90;67.26
70089;HTU21D;57460;47.134;19.888;2023-05-02T04:41:16;11.00;67.92
70089;HTU21D;57460;47.134;19.888;2023-05-02T04:43:43;11.14;66.17
70089;HTU21D;57460;47.134;19.888;2023-05-02T04:46:12;11.29;68.44
70089;HTU21D;57460;47.134;19.888;2023-05-02T04:48:37;11.42;67.55
70089;HTU21D;57460;47.134;19.888;2023-05-02T04:51:09;11.60;68.13
70089;HTU21D;57460;47.134;19.888;2023-05-02T04:53:36;11.76;67.41
70089;HTU21D;57460;47.134;19.888;2023-05-02T04:56:02;11.98;67.39
70089;HTU21D;57460;47.134;19.888;2023-05-02T04:58:28;12.14;67.20
70089;HTU21D;57460;47.134;19.888;2023-05-02T05:01:21;12.34;66.43
70089;HTU21D;57460;47.134;19.888;2023-05-02T05:06:58;12.71;65.73
70089;HTU21D;57460;47.134;19.888;2023-05-02T05:09:24;12.87;64.75
70089;HTU21D;57460;47.134;19.888;2023-05-02T05:11:50;13.03;65.87
70089;HTU21D;57460;47.134;19.888;2023-05-02T05:14:42;13.15;65.68
70089;HTU21D;57460;47.134;19.888;2023-05-02T05:17:07;13.32;62.67
70089;HTU21D;57460;47.134;19.888;2023-05-02T05:19:32;13.45;64.43
70089;HTU21D;57460;47.134;19.888;2023-05-02T05:24:56;13.74;64.64
70089;HTU21D;57460;47.134;19.888;2023-05-02T05:27:22;13.88;64.29
70089;HTU21D;57460;47.134;19.888;2023-05-02T05:29:48;13.98;63.47
70089;HTU21D;57460;47.134;19.888;2023-05-02T05:32:13;14.10;62.34
70089;HTU21D;57460;47.134;19.888;2023-05-02T05:34:39;14.22;62.65
70089;HTU21D;57460;47.134;19.888;2023-05-02T05:37:05;14.33;60.92
70089;HTU21D;57460;47.134;19.888;2023-05-02T05:39:31;14.42;63.19
70089;HTU21D;57460;47.134;19.888;2023-05-02T05:41:57;14.58;61.35
70089;HTU21D;57460;47.134;19.888;2023-05-02T05:44:22;14.70;62.48
70089;HTU21D;57460;47.134;19.888;2023-05-02T05:46:49;14.87;61.34
70089;HTU21D;57460;47.134;19.888;2023-05-02T05:49:15;15.01;62.08
70089;HTU21D;57460;47.134;19.888;2023-05-02T05:51:42;15.19;61.28
70089;HTU21D;57460;47.134;19.888;2023-05-02T05:54:07;15.34;59.28
70089;HTU21D;57460;47.134;19.888;2023-05-02T05:56:33;15.53;58.78
70089;HTU21D;57460;47.134;19.888;2023-05-02T05:58:59;15.59;60.77
70089;HTU21D;57460;47.134;19.888;2023-05-02T06:01:25;15.72;59.74
70089;HTU21D;57460;47.134;19.888;2023-05-02T06:03:51;15.84;61.12
70089;HTU21D;57460;47.134;19.888;2023-05-02T06:06:16;15.92;58.78
70089;HTU21D;57460;47.134;19.888;2023-05-02T06:08:42;15.99;59.28
70089;HTU21D;57460;47.134;19.888;2023-05-02T06:11:09;16.06;58.25
70089;HTU21D;57460;47.134;19.888;2023-05-02T06:13:36;16.16;57.61
70089;HTU21D;57460;47.134;19.888;2023-05-02T06:16:02;16.27;57.52
70089;HTU21D;57460;47.134;19.888;2023-05-02T06:18:28;16.37;58.02
70089;HTU21D;57460;47.134;19.888;2023-05-02T06:20:54;16.47;56.45
70089;HTU21D;57460;47.134;19.888;2023-05-02T06:23:20;16.55;56.38
70089;HTU21D;57460;47.134;19.888;2023-05-02T06:25:45;16.64;56.42
70089;HTU21D;57460;47.134;19.888;2023-05-02T06:28:11;16.75;56.45
70089;HTU21D;57460;47.134;19.888;2023-05-02T06:30:37;16.87;55.50
70089;HTU21D;57460;47.134;19.888;2023-05-02T06:33:04;16.92;55.67
70089;HTU21D;57460;47.134;19.888;2023-05-02T06:35:30;17.04;55.37
70089;HTU21D;57460;47.134;19.888;2023-05-02T06:37:56;17.22;55.26
70089;HTU21D;57460;47.134;19.888;2023-05-02T06:40:21;17.36;54.04
70089;HTU21D;57460;47.134;19.888;2023-05-02T06:42:47;17.44;54.81
70089;HTU21D;57460;47.134;19.888;2023-05-02T06:45:13;17.58;53.83
70089;HTU21D;57460;47.134;19.888;2023-05-02T06:47:39;17.75;53.94
70089;HTU21D;57460;47.134;19.888;2023-05-02T06:50:05;17.98;53.31
70089;HTU21D;57460;47.134;19.888;2023-05-02T06:52:31;18.18;52.11
70089;HTU21D;57460;47.134;19.888;2023-05-02T06:54:57;18.25;52.61
70089;HTU21D;57460;47.134;19.888;2023-05-02T06:57:24;18.20;51.93
70089;HTU21D;57460;47.134;19.888;2023-05-02T06:59:49;18.33;52.67
70089;HTU21D;57460;47.134;19.888;2023-05-02T07:02:15;18.44;50.72
70089;HTU21D;57460;47.134;19.888;2023-05-02T07:04:43;18.57;51.64
70089;HTU21D;57460;47.134;19.888;2023-05-02T07:07:09;18.76;51.70
70089;HTU21D;57460;47.134;19.888;2023-05-02T07:09:35;18.88;51.79
70089;HTU21D;57460;47.134;19.888;2023-05-02T07:12:01;19.21;51.19
70089;HTU21D;57460;47.134;19.888;2023-05-02T07:14:27;19.51;50.34
70089;HTU21D;57460;47.134;19.888;2023-05-02T07:16:52;19.61;47.59
70089;HTU21D;57460;47.134;19.888;2023-05-02T07:19:18;19.66;47.54
70089;HTU21D;57460;47.134;19.888;2023-05-02T07:21:44;19.65;46.73
70089;HTU21D;57460;47.134;19.888;2023-05-02T07:24:10;19.44;46.45
70089;HTU21D;57460;47.134;19.888;2023-05-02T07:26:36;19.40;49.15
70089;HTU21D;57460;47.134;19.888;2023-05-02T07:29:02;19.45;49.21
70089;HTU21D;57460;47.134;19.888;2023-05-02T07:31:27;19.45;48.81
70089;HTU21D;57460;47.134;19.888;2023-05-02T07:33:53;19.38;48.82
70089;HTU21D;57460;47.134;19.888;2023-05-02T07:36:19;19.20;47.52
70089;HTU21D;57460;47.134;19.888;2023-05-02T07:38:45;19.20;49.37
70089;HTU21D;57460;47.134;19.888;2023-05-02T07:41:13;19.22;49.79
70089;HTU21D;57460;47.134;19.888;2023-05-02T07:43:39;19.36;49.13
70089;HTU21D;57460;47.134;19.888;2023-05-02T07:46:05;19.39;47.91
70089;HTU21D;57460;47.134;19.888;2023-05-02T07:48:31;19.44;48.11
70089;HTU21D;57460;47.134;19.888;2023-05-02T07:51:08;19.53;48.52
70089;HTU21D;57460;47.134;19.888;2023-05-02T07:53:34;19.56;48.85
70089;HTU21D;57460;47.134;19.888;2023-05-02T07:56:03;19.70;48.22
70089;HTU21D;57460;47.134;19.888;2023-05-02T07:58:30;19.79;47.40
70089;HTU21D;57460;47.134;19.888;2023-05-02T08:00:56;19.91;47.50
70089;HTU21D;57460;47.134;19.888;2023-05-02T08:03:22;20.12;48.34
70089;HTU21D;57460;47.134;19.888;2023-05-02T08:05:48;20.18;47.02
70089;HTU21D;57460;47.134;19.888;2023-05-02T08:08:14;20.25;46.22
70089;HTU21D;57460;47.134;19.888;2023-05-02T08:10:40;20.34;46.67
70089;HTU21D;57460;47.134;19.888;2023-05-02T08:13:06;20.48;45.88
70089;HTU21D;57460;47.134;19.888;2023-05-02T08:15:31;20.65;45.73
70089;HTU21D;57460;47.134;19.888;2023-05-02T08:17:57;20.71;45.68
70089;HTU21D;57460;47.134;19.888;2023-05-02T08:20:26;20.86;44.90
70089;HTU21D;57460;47.134;19.888;2023-05-02T08:22:52;21.16;44.37
70089;HTU21D;57460;47.134;19.888;2023-05-02T08:25:17;21.44;43.29
70089;HTU21D;57460;47.134;19.888;2023-05-02T08:27:44;21.66;43.46
70089;HTU21D;57460;47.134;19.888;2023-05-02T08:30:10;21.83;44.10
70089;HTU21D;57460;47.134;19.888;2023-05-02T08:32:36;22.14;44.73
70089;HTU21D;57460;47.134;19.888;2023-05-02T08:35:05;22.48;41.71
70089;HTU21D;57460;47.134;19.888;2023-05-02T08:37:31;22.70;42.64
70089;HTU21D;57460;47.134;19.888;2023-05-02T08:40:00;22.93;38.07
70089;HTU21D;57460;47.134;19.888;2023-05-02T08:42:28;23.09;39.49
70089;HTU21D;57460;47.134;19.888;2023-05-02T08:44:57;23.28;36.81
70089;HTU21D;57460;47.134;19.888;2023-05-02T08:47:24;23.26;35.79
70089;HTU21D;57460;47.134;19.888;2023-05-02T08:49:54;23.44;37.61
70089;HTU21D;57460;47.134;19.888;2023-05-02T08:52:21;23.67;37.91
70089;HTU21D;57460;47.134;19.888;2023-05-02T08:54:48;23.74;37.46
70089;HTU21D;57460;47.134;19.888;2023-05-02T08:57:25;24.05;37.25
70089;HTU21D;57460;47.134;19.888;2023-05-02T08:59:53;24.26;36.24
70089;HTU21D;57460;47.134;19.888;2023-05-02T09:05:26;24.40;34.09
70089;HTU21D;57460;47.134;19.888;2023-05-02T09:07:52;24.20;34.77
70089;HTU21D;57460;47.134;19.888;2023-05-02T09:10:18;24.34;33.09
70089;HTU21D;57460;47.134;19.888;2023-05-02T09:12:45;24.51;34.45
70089;HTU21D;57460;47.134;19.888;2023-05-02T09:15:16;24.60;33.26
70089;HTU21D;57460;47.134;19.888;2023-05-02T09:17:46;24.80;34.47
70089;HTU21D;57460;47.134;19.888;2023-05-02T09:20:14;24.88;33.00
70089;HTU21D;57460;47.134;19.888;2023-05-02T09:22:51;24.75;34.65
70089;HTU21D;57460;47.134;19.888;2023-05-02T09:25:18;24.76;34.66
70089;HTU21D;57460;47.134;19.888;2023-05-02T09:27:52;24.87;32.45
70089;HTU21D;57460;47.134;19.888;2023-05-02T09:30:23;24.97;33.38
70089;HTU21D;57460;47.134;19.888;2023-05-02T09:32:53;25.17;32.73
70089;HTU21D;57460;47.134;19.888;2023-05-02T09:35:21;25.28;32.60
70089;HTU21D;57460;47.134;19.888;2023-05-02T09:37:56;25.19;31.48
70089;HTU21D;57460;47.134;19.888;2023-05-02T09:40:22;25.18;31.24
70089;HTU21D;57460;47.134;19.888;2023-05-02T09:42:49;25.43;32.66
70089;HTU21D;57460;47.134;19.888;2023-05-02T09:45:23;25.75;32.17
70089;HTU21D;57460;47.134;19.888;2023-05-02T09:47:50;25.91;31.92
70089;HTU21D;57460;47.134;19.888;2023-05-02T09:50:43;25.79;31.89
70089;HTU21D;57460;47.134;19.888;2023-05-02T09:53:09;26.02;31.13
70089;HTU21D;57460;47.134;19.888;2023-05-02T09:55:36;26.13;29.88
70089;HTU21D;57460;47.134;19.888;2023-05-02T09:58:02;26.15;29.63
70089;HTU21D;57460;47.134;19.888;2023-05-02T10:00:57;25.84;30.08
70089;HTU21D;57460;47.134;19.888;2023-05-02T10:03:26;25.61;31.45
70089;HTU21D;57460;47.134;19.888;2023-05-02T10:05:53;25.49;31.91
70089;HTU21D;57460;47.134;19.888;2023-05-02T10:08:29;25.52;31.76
70089;HTU21D;57460;47.134;19.888;2023-05-02T10:10:58;25.58;30.09
70089;HTU21D;57460;47.134;19.888;2023-05-02T10:13:26;25.68;30.86
70089;HTU21D;57460;47.134;19.888;2023-05-02T10:16:01;25.95;30.17
70089;HTU21D;57460;47.134;19.888;2023-05-02T10:18:42;26.18;29.92
70089;HTU21D;57460;47.134;19.888;2023-05-02T10:21:16;25.97;30.35
70089;HTU21D;57460;47.134;19.888;2023-05-02T10:23:47;25.78;29.78
70089;HTU21D;57460;47.134;19.888;2023-05-02T10:26:15;25.57;30.50
70089;HTU21D;57460;47.134;19.888;2023-05-02T10:28:42;25.38;30.28
70089;HTU21D;57460;47.134;19.888;2023-05-02T10:31:12;25.10;30.62
70089;HTU21D;57460;47.134;19.888;2023-05-02T10:33:39;24.89;31.07
70089;HTU21D;57460;47.134;19.888;2023-05-02T10:36:09;24.83;31.99
70089;HTU21D;57460;47.134;19.888;2023-05-02T10:38:38;24.87;32.19
70089;HTU21D;57460;47.134;19.888;2023-05-02T10:41:20;25.00;32.19
70089;HTU21D;57460;47.134;19.888;2023-05-02T10:43:48;25.30;31.24
70089;HTU21D;57460;47.134;19.888;2023-05-02T10:46:36;25.62;31.57
70089;HTU21D;57460;47.134;19.888;2023-05-02T10:49:07;25.88;30.92
70089;HTU21D;57460;47.134;19.888;2023-05-02T10:51:35;26.10;30.71
70089;HTU21D;57460;47.134;19.888;2023-05-02T10:59:38;26.72;28.60
70089;HTU21D;57460;47.134;19.888;2023-05-02T11:05:06;26.55;29.51
70089;HTU21D;57460;47.134;19.888;2023-05-02T11:07:37;26.53;27.84
70089;HTU21D;57460;47.134;19.888;2023-05-02T11:12:53;26.68;28.97
70089;HTU21D;57460;47.134;19.888;2023-05-02T11:20:24;27.25;28.01
70089;HTU21D;57460;47.134;19.888;2023-05-02T11:22:51;27.12;27.53
70089;HTU21D;57460;47.134;19.888;2023-05-02T11:25:32;27.07;28.52
70089;HTU21D;57460;47.134;19.888;2023-05-02T11:27:58;27.05;27.99
70089;HTU21D;57460;47.134;19.888;2023-05-02T11:30:40;26.93;26.75
70089;HTU21D;57460;47.134;19.888;2023-05-02T11:33:12;26.80;27.77
70089;HTU21D;57460;47.134;19.888;2023-05-02T11:35:42;26.71;27.61
70089;HTU21D;57460;47.134;19.888;2023-05-02T11:38:35;26.79;28.10
70089;HTU21D;57460;47.134;19.888;2023-05-02T11:41:05;26.94;27.00
70089;HTU21D;57460;47.134;19.888;2023-05-02T11:43:31;27.01;26.65
70089;HTU21D;57460;47.134;19.888;2023-05-02T11:45:58;27.22;27.55
70089;HTU21D;57460;47.134;19.888;2023-05-02T11:48:29;27.31;28.07
70089;HTU21D;57460;47.134;19.888;2023-05-02T11:50:57;27.05;27.41
70089;HTU21D;57460;47.134;19.888;2023-05-02T11:53:29;26.85;28.61
70089;HTU21D;57460;47.134;19.888;2023-05-02T11:56:00;26.86;28.62
70089;HTU21D;57460;47.134;19.888;2023-05-02T11:58:28;27.05;28.61
70089;HTU21D;57460;47.134;19.888;2023-05-02T12:00:57;27.21;27.08
70089;HTU21D;57460;47.134;19.888;2023-05-02T12:03:31;27.06;28.19
70089;HTU21D;57460;47.134;19.888;2023-05-02T12:06:09;26.71;27.60
70089;HTU21D;57460;47.134;19.888;2023-05-02T12:08:36;26.75;29.98
70089;HTU21D;57460;47.134;19.888;2023-05-02T12:11:04;26.76;28.51
70089;HTU21D;57460;47.134;19.888;2023-05-02T12:13:31;26.98;28.37
70089;HTU21D;57460;47.134;19.888;2023-05-02T12:16:00;26.96;28.51
70089;HTU21D;57460;47.134;19.888;2023-05-02T12:18:32;27.07;29.64
70089;HTU21D;57460;47.134;19.888;2023-05-02T12:20:57;27.25;26.88
70089;HTU21D;57460;47.134;19.888;2023-05-02T12:23:24;27.25;28.25
70089;HTU21D;57460;47.134;19.888;2023-05-02T12:25:53;27.17;26.91
70089;HTU21D;57460;47.134;19.888;2023-05-02T12:28:19;26.71;27.94
70089;HTU21D;57460;47.134;19.888;2023-05-02T12:30:47;26.18;29.24
70089;HTU21D;57460;47.134;19.888;2023-05-02T12:33:14;25.94;29.39
70089;HTU21D;57460;47.134;19.888;2023-05-02T12:35:41;25.80;29.56
70089;HTU21D;57460;47.134;19.888;2023-05-02T12:38:18;25.73;29.98
70089;HTU21D;57460;47.134;19.888;2023-05-02T12:40:50;25.69;30.03
70089;HTU21D;57460;47.134;19.888;2023-05-02T12:43:17;25.88;29.76
70089;HTU21D;57460;47.134;19.888;2023-05-02T12:45:43;25.89;29.96
70089;HTU21D;57460;47.134;19.888;2023-05-02T12:48:22;25.75;29.25
70089;HTU21D;57460;47.134;19.888;2023-05-02T12:50:48;25.84;30.24
70089;HTU21D;57460;47.134;19.888;2023-05-02T12:53:15;25.94;29.87
70089;HTU21D;57460;47.134;19.888;2023-05-02T12:55:42;25.99;30.75
70089;HTU21D;57460;47.134;19.888;2023-05-02T12:58:38;26.18;29.29
70089;HTU21D;57460;47.134;19.888;2023-05-02T13:01:08;26.38;30.17
70089;HTU21D;57460;47.134;19.888;2023-05-02T13:03:35;26.54;28.97
70089;HTU21D;57460;47.134;19.888;2023-05-02T13:06:01;26.52;28.43
70089;HTU21D;57460;47.134;19.888;2023-05-02T13:08:35;26.42;29.09
70089;HTU21D;57460;47.134;19.888;2023-05-02T13:11:04;26.30;28.77
70089;HTU21D;57460;47.134;19.888;2023-05-02T13:13:54;26.05;28.89
70089;HTU21D;57460;47.134;19.888;2023-05-02T13:16:23;26.19;29.42
70089;HTU21D;57460;47.134;19.888;2023-05-02T13:18:49;26.56;26.81
70089;HTU21D;57460;47.134;19.888;2023-05-02T13:24:33;26.39;27.71
70089;HTU21D;57460;47.134;19.888;2023-05-02T13:26:59;26.37;27.54
70089;HTU21D;57460;47.134;19.888;2023-05-02T13:29:25;26.41;28.21
70089;HTU21D;57460;47.134;19.888;2023-05-02T13:31:51;26.34;26.67
70089;HTU21D;57460;47.134;19.888;2023-05-02T13:34:37;26.11;28.49
70089;HTU21D;57460;47.134;19.888;2023-05-02T13:37:03;26.03;29.07
70089;HTU21D;57460;47.134;19.888;2023-05-02T13:39:32;25.89;29.29
70089;HTU21D;57460;47.134;19.888;2023-05-02T13:42:01;25.78;29.00
70089;HTU21D;57460;47.134;19.888;2023-05-02T13:44:28;25.80;28.60
70089;HTU21D;57460;47.134;19.888;2023-05-02T13:47:12;25.72;29.21
70089;HTU21D;57460;47.134;19.888;2023-05-02T13:49:41;25.54;28.59
70089;HTU21D;57460;47.134;19.888;2023-05-02T13:52:19;25.40;29.99
70089;HTU21D;57460;47.134;19.888;2023-05-02T13:54:45;25.35;29.84
70089;HTU21D;57460;47.134;19.888;2023-05-02T13:57:17;25.40;29.73
70089;HTU21D;57460;47.134;19.888;2023-05-02T13:59:58;25.44;29.00
70089;HTU21D;57460;47.134;19.888;2023-05-02T14:02:24;25.34;28.61
70089;HTU21D;57460;47.134;19.888;2023-05-02T14:04:50;25.46;28.99
70089;HTU21D;57460;47.134;19.888;2023-05-02T14:07:18;25.34;29.52
70089;HTU21D;57460;47.134;19.888;2023-05-02T14:09:44;25.18;29.33
70089;HTU21D;57460;47.134;19.888;2023-05-02T14:15:15;25.07;30.41
70089;HTU21D;57460;47.134;19.888;2023-05-02T14:17:48;25.12;29.74
70089;HTU21D;57460;47.134;19.888;2023-05-02T14:20:14;25.09;30.23
70089;HTU21D;57460;47.134;19.888;2023-05-02T14:22:40;25.17;30.09
70089;HTU21D;57460;47.134;19.888;2023-05-02T14:25:06;25.23;29.70
70089;HTU21D;57460;47.134;19.888;2023-05-02T14:27:33;25.31;30.09
70089;HTU21D;57460;47.134;19.888;2023-05-02T14:30:05;25.20;29.93
70089;HTU21D;57460;47.134;19.888;2023-05-02T14:32:31;25.13;29.48
70089;HTU21D;57460;47.134;19.888;2023-05-02T14:34:57;25.10;30.07
70089;HTU21D;57460;47.134;19.888;2023-05-02T14:37:23;25.16;29.48
70089;HTU21D;57460;47.134;19.888;2023-05-02T14:39:49;25.31;29.37
70089;HTU21D;57460;47.134;19.888;2023-05-02T14:42:17;25.36;29.16
70089;HTU21D;57460;47.134;19.888;2023-05-02T14:44:42;25.36;28.87
70089;HTU21D;57460;47.134;19.888;2023-05-02T14:47:08;25.45;29.30
70089;HTU21D;57460;47.134;19.888;2023-05-02T14:49:34;25.43;28.81
70089;HTU21D;57460;47.134;19.888;2023-05-02T14:52:00;25.40;29.67
70089;HTU21D;57460;47.134;19.888;2023-05-02T14:57:48;25.29;29.29
70089;HTU21D;57460;47.134;19.888;2023-05-02T15:07:09;25.71;29.55
70089;HTU21D;57460;47.134;19.888;2023-05-02T15:09:35;25.71;30.20
70089;HTU21D;57460;47.134;19.888;2023-05-02T15:12:01;25.68;29.62
70089;HTU21D;57460;47.134;19.888;2023-05-02T15:14:29;25.51;29.54
70089;HTU21D;57460;47.134;19.888;2023-05-02T15:16:55;25.39;30.16
70089;HTU21D;57460;47.134;19.888;2023-05-02T15:22:25;25.14;29.97
70089;HTU21D;57460;47.134;19.888;2023-05-02T15:28:13;25.08;29.13
70089;HTU21D;57460;47.134;19.888;2023-05-02T15:30:57;25.09;30.03
70089;HTU21D;57460;47.134;19.888;2023-05-02T15:33:23;25.09;29.00
70089;HTU21D;57460;47.134;19.888;2023-05-02T15:35:56;25.14;29.61
70089;HTU21D;57460;47.134;19.888;2023-05-02T15:38:23;25.08;29.44
70089;HTU21D;57460;47.134;19.888;2023-05-02T15:40:57;25.03;30.39
70089;HTU21D;57460;47.134;19.888;2023-05-02T15:43:23;25.06;30.64
70089;HTU21D;57460;47.134;19.888;2023-05-02T15:45:55;25.06;30.71
70089;HTU21D;57460;47.134;19.888;2023-05-02T15:48:22;25.07;30.26
70089;HTU21D;57460;47.134;19.888;2023-05-02T15:50:49;25.09;30.61
70089;HTU21D;57460;47.134;19.888;2023-05-02T16:04:52;24.88;31.19
70089;HTU21D;57460;47.134;19.888;2023-05-02T16:07:18;24.82;31.23
70089;HTU21D;57460;47.134;19.888;2023-05-02T16:09:44;24.75;32.14
70089;HTU21D;57460;47.134;19.888;2023-05-02T16:12:10;24.70;31.45
70089;HTU21D;57460;47.134;19.888;2023-05-02T16:14:40;24.68;31.06
70089;HTU21D;57460;47.134;19.888;2023-05-02T16:17:06;24.63;32.63
70089;HTU21D;57460;47.134;19.888;2023-05-02T16:19:32;24.53;32.85
70089;HTU21D;57460;47.134;19.888;2023-05-02T16:21:58;24.47;32.62
70089;HTU21D;57460;47.134;19.888;2023-05-02T16:24:24;24.46;32.97
70089;HTU21D;57460;47.134;19.888;2023-05-02T16:26:50;24.46;32.61
70089;HTU21D;57460;47.134;19.888;2023-05-02T16:29:15;24.44;32.64
70089;HTU21D;57460;47.134;19.888;2023-05-02T16:31:41;24.40;32.89
70089;HTU21D;57460;47.134;19.888;2023-05-02T16:34:07;24.40;32.54